createdAt,value
2018-04-11T00:00:47.228Z,100280.22
2018-04-11T00:03:14.689Z,100275.42
2018-04-11T00:05:42.148Z,100280.22
2018-04-11T00:08:09.680Z,100279.78
2018-04-11T00:10:37.153Z,100273.24
2018-04-11T00:13:04.712Z,100277.19
2018-04-11T00:15:32.204Z,100280.72
2018-04-11T00:17:59.678Z,100278.80
2018-04-11T00:20:27.137Z,100284.66
2018-04-11T00:22:54.617Z,100280.27
2018-04-11T00:25:22.163Z,100283.69
2018-04-11T00:27:49.627Z,100286.52
2018-04-11T00:30:17.122Z,100285.30
2018-04-11T00:32:44.595Z,100288.28
2018-04-11T00:35:12.100Z,100290.73
2018-04-11T00:37:39.567Z,100290.84
2018-04-11T00:40:07.034Z,100290.97
2018-04-11T00:42:34.545Z,100293.80
2018-04-11T00:45:02.073Z,100283.69
2018-04-11T00:47:29.555Z,100299.20
2018-04-11T00:49:57.050Z,100296.48
2018-04-11T00:52:24.524Z,100312.84
2018-04-11T00:54:52.012Z,100308.75
2018-04-11T00:57:19.508Z,100310.69
2018-04-11T00:59:47.011Z,100310.88
2018-04-11T01:02:14.465Z,100305.02
2018-04-11T01:04:41.959Z,100309.81
2018-04-11T01:07:09.430Z,100305.31
2018-04-11T01:09:36.945Z,100307.59
2018-04-11T01:12:04.551Z,100307.89
2018-04-11T01:14:32.016Z,100306.23
2018-04-11T01:16:59.502Z,100300.22
2018-04-11T01:19:27.097Z,100303.45
2018-04-11T01:21:54.560Z,100301.01
2018-04-11T01:24:22.201Z,100299.48
2018-04-11T01:26:49.673Z,100298.22
2018-04-11T01:29:17.140Z,100303.40
2018-04-11T01:31:44.711Z,100309.11
2018-04-11T01:34:12.169Z,100308.84
2018-04-11T01:36:39.685Z,100311.42
2018-04-11T01:39:07.296Z,100309.90
2018-04-11T01:41:34.773Z,100310.73
2018-04-11T01:44:02.250Z,100307.30
2018-04-11T01:46:29.729Z,100316.28
2018-04-11T01:48:57.188Z,100316.12
2018-04-11T01:51:24.688Z,100310.64
2018-04-11T01:53:52.202Z,100313.08
2018-04-11T01:56:19.698Z,100314.42
2018-04-11T01:58:47.188Z,100314.11
2018-04-11T02:01:14.672Z,100312.19
2018-04-11T02:03:42.128Z,100305.52
2018-04-11T02:06:09.603Z,100305.22
2018-04-11T02:08:37.093Z,100309.43
2018-04-11T02:11:04.558Z,100309.27
2018-04-11T02:13:32.030Z,100306.27
2018-04-11T02:15:59.524Z,100309.23
2018-04-11T02:18:26.991Z,100305.27
2018-04-11T02:20:54.465Z,100304.55
2018-04-11T02:23:21.955Z,100305.23
2018-04-11T02:25:49.429Z,100300.42
2018-04-11T02:28:16.901Z,100301.77
2018-04-11T02:30:44.405Z,100310.58
2018-04-11T02:33:11.881Z,100305.09
2018-04-11T02:35:39.344Z,100303.61
2018-04-11T02:38:06.832Z,100293.62
2018-04-11T02:40:34.300Z,100287.35
2018-04-11T02:43:01.776Z,100294.69
2018-04-11T02:45:29.270Z,100288.11
2018-04-11T02:47:56.733Z,100291.52
2018-04-11T02:50:24.227Z,100298.98
2018-04-11T02:52:51.736Z,100302.22
2018-04-11T02:55:19.237Z,100301.63
2018-04-11T02:57:46.706Z,100309.37
2018-04-11T03:00:14.193Z,100313.44
2018-04-11T03:02:41.706Z,100316.95
2018-04-11T03:05:09.269Z,100319.31
2018-04-11T03:07:36.746Z,100319.44
2018-04-11T03:10:04.287Z,100312.30
2018-04-11T03:12:31.767Z,100309.41
2018-04-11T03:14:59.237Z,100319.08
2018-04-11T03:17:26.727Z,100319.52
2018-04-11T03:19:54.210Z,100317.17
2018-04-11T03:22:21.772Z,100314.84
2018-04-11T03:24:49.266Z,100313.45
2018-04-11T03:27:16.747Z,100321.45
2018-04-11T03:29:44.245Z,100310.12
2018-04-11T03:32:11.745Z,100305.20
2018-04-11T03:34:39.226Z,100304.09
2018-04-11T03:37:06.695Z,100309.06
2018-04-11T03:39:34.192Z,100308.73
2018-04-11T03:42:01.662Z,100308.41
2018-04-11T03:44:29.183Z,100306.09
2018-04-11T03:46:56.677Z,100308.95
2018-04-11T03:49:24.198Z,100303.78
2018-04-11T03:51:51.672Z,100316.33
2018-04-11T03:54:19.140Z,100327.19
2018-04-11T03:56:46.677Z,100325.56
2018-04-11T03:59:14.170Z,100331.23
2018-04-11T04:01:41.713Z,100339.80
2018-04-11T04:04:09.185Z,100348.09
2018-04-11T04:06:36.681Z,100345.89
2018-04-11T04:09:04.141Z,100354.76
2018-04-11T04:11:31.628Z,100349.73
2018-04-11T04:14:10.969Z,100350.61
2018-04-11T04:16:50.452Z,100349.73
2018-04-11T04:19:29.829Z,100354.48
2018-04-11T04:21:57.296Z,100355.41
2018-04-11T04:24:24.780Z,100351.80
2018-04-11T04:26:52.360Z,100355.20
2018-04-11T04:29:19.839Z,100358.44
2018-04-11T04:31:47.309Z,100359.79
2018-04-11T04:34:14.792Z,100357.99
2018-04-11T04:36:42.280Z,100360.84
2018-04-11T04:39:09.753Z,100368.73
2018-04-11T04:41:37.252Z,100362.75
2018-04-11T04:44:04.708Z,100366.15
2018-04-11T04:46:32.177Z,100371.89
2018-04-11T04:48:59.674Z,100372.54
2018-04-11T04:51:27.149Z,100378.86
2018-04-11T04:53:54.643Z,100379.41
2018-04-11T04:56:22.128Z,100385.55
2018-04-11T04:58:49.600Z,100388.55
2018-04-11T05:01:17.093Z,100388.71
2018-04-11T05:03:44.721Z,100391.97
2018-04-11T05:06:12.212Z,100387.36
2018-04-11T05:08:39.685Z,100394.12
2018-04-11T05:11:07.141Z,100392.80
2018-04-11T05:13:34.728Z,100394.86
2018-04-11T05:16:02.190Z,100403.06
2018-04-11T05:18:29.765Z,100394.11
2018-04-11T05:20:57.257Z,100398.88
2018-04-11T05:23:24.734Z,100401.05
2018-04-11T05:25:52.212Z,100400.64
2018-04-11T05:28:19.696Z,100406.08
2018-04-11T05:30:47.190Z,100408.59
2018-04-11T05:33:14.661Z,100403.29
2018-04-11T05:35:42.148Z,100403.70
2018-04-11T05:38:09.704Z,100401.46
2018-04-11T05:40:37.176Z,100401.73
2018-04-11T05:43:04.688Z,100402.64
2018-04-11T05:45:32.276Z,100399.30
2018-04-11T05:47:59.764Z,100400.22
2018-04-11T05:50:27.336Z,100400.67
2018-04-11T05:52:54.809Z,100403.63
2018-04-11T05:55:22.361Z,100397.72
2018-04-11T05:57:49.852Z,100398.05
2018-04-11T06:00:17.328Z,100398.26
2018-04-11T06:02:44.797Z,100405.27
2018-04-11T06:05:12.307Z,100402.27
2018-04-11T06:07:39.768Z,100412.70
2018-04-11T06:10:07.267Z,100405.84
2018-04-11T06:12:34.768Z,100411.59
2018-04-11T06:15:02.242Z,100415.27
2018-04-11T06:17:29.715Z,100417.50
2018-04-11T06:19:57.299Z,100416.55
2018-04-11T06:22:24.797Z,100415.31
2018-04-11T06:24:52.266Z,100435.66
2018-04-11T06:27:19.745Z,100436.80
2018-04-11T06:29:47.238Z,100437.48
2018-04-11T06:32:14.748Z,100439.92
2018-04-11T06:34:42.242Z,100436.25
2018-04-11T06:37:09.721Z,100421.01
2018-04-11T06:39:37.268Z,100427.21
2018-04-11T06:42:04.876Z,100424.27
2018-04-11T06:44:32.356Z,100423.94
2018-04-11T06:46:59.837Z,100433.34
2018-04-11T06:49:27.345Z,100429.09
2018-04-11T06:51:54.893Z,100421.77
2018-04-11T06:54:22.360Z,100419.80
2018-04-11T06:56:49.820Z,100419.77
2018-04-11T06:59:17.304Z,100417.58
2018-04-11T07:01:44.765Z,100414.70
2018-04-11T07:04:12.220Z,100421.05
2018-04-11T07:06:39.813Z,100419.06
2018-04-11T07:09:07.273Z,100414.44
2018-04-11T07:11:34.768Z,100409.20
2018-04-11T07:14:02.251Z,100410.50
2018-04-11T07:16:29.729Z,100411.73
2018-04-11T07:18:57.243Z,100413.94
2018-04-11T07:21:24.723Z,100404.77
2018-04-11T07:23:52.204Z,100413.52
2018-04-11T07:26:19.865Z,100411.97
2018-04-11T07:28:47.329Z,100409.25
2018-04-11T07:31:14.787Z,100406.98
2018-04-11T07:33:42.361Z,100416.05
2018-04-11T07:36:09.876Z,100408.68
2018-04-11T07:38:37.357Z,100412.20
2018-04-11T07:41:04.824Z,100405.61
2018-04-11T07:43:32.304Z,100407.80
2018-04-11T07:46:00.682Z,100405.54
2018-04-11T07:48:28.186Z,100406.91
2018-04-11T07:50:55.705Z,100406.13
2018-04-11T07:53:23.190Z,100408.04
2018-04-11T07:55:50.683Z,100414.33
2018-04-11T07:58:18.166Z,100403.80
2018-04-11T08:00:45.635Z,100407.58
2018-04-11T08:03:13.131Z,100408.18
2018-04-11T08:05:40.584Z,100410.60
2018-04-11T08:08:08.058Z,100409.75
2018-04-11T08:10:35.629Z,100412.98
2018-04-11T08:13:03.104Z,100412.33
2018-04-11T08:15:30.571Z,100418.06
2018-04-11T08:17:58.096Z,100410.73
2018-04-11T08:20:25.555Z,100413.80
2018-04-11T08:22:53.078Z,100404.70
2018-04-11T08:25:20.580Z,100395.40
2018-04-11T08:27:48.105Z,100401.02
2018-04-11T08:30:15.589Z,100401.55
2018-04-11T08:32:43.053Z,100409.87
2018-04-11T08:35:10.612Z,100410.02
2018-04-11T08:37:38.091Z,100407.39
2018-04-11T08:40:05.678Z,100412.73
2018-04-11T08:42:33.234Z,100411.36
2018-04-11T08:45:00.708Z,100418.88
2018-04-11T08:47:28.190Z,100405.82
2018-04-11T08:49:55.764Z,100412.20
2018-04-11T08:52:23.230Z,100400.90
2018-04-11T08:54:50.706Z,100414.31
2018-04-11T08:57:18.256Z,100412.30
2018-04-11T08:59:45.722Z,100410.45
2018-04-11T09:02:13.213Z,100415.38
2018-04-11T09:04:40.719Z,100411.23
2018-04-11T09:07:08.231Z,100409.92
2018-04-11T09:09:35.742Z,100416.03
2018-04-11T09:12:03.216Z,100408.61
2018-04-11T09:14:30.694Z,100396.22
2018-04-11T09:16:58.197Z,100403.97
2018-04-11T09:19:25.665Z,100412.89
2018-04-11T09:21:53.237Z,100400.56
2018-04-11T09:24:20.746Z,100392.87
2018-04-11T09:26:48.218Z,100403.51
2018-04-11T09:29:15.700Z,100395.52
2018-04-11T09:31:43.189Z,100399.66
2018-04-11T09:34:10.700Z,100400.86
2018-04-11T09:36:38.734Z,100403.97
2018-04-11T09:39:06.225Z,100404.78
2018-04-11T09:41:33.688Z,100398.56
2018-04-11T09:44:01.168Z,100404.73
2018-04-11T09:46:28.659Z,100402.52
2018-04-11T09:48:56.122Z,100401.50
2018-04-11T09:51:23.753Z,100399.77
2018-04-11T09:53:51.226Z,100393.22
2018-04-11T09:56:18.696Z,100389.72
2018-04-11T09:58:46.260Z,100387.69
2018-04-11T10:01:18.771Z,100387.56
2018-04-11T10:03:46.248Z,100398.06
2018-04-11T10:06:13.844Z,100400.81
2018-04-11T10:08:42.194Z,100391.99
2018-04-11T10:11:09.661Z,100396.99
2018-04-11T10:13:37.191Z,100406.94
2018-04-11T10:16:04.767Z,100394.98
2018-04-11T10:18:32.252Z,100382.89
2018-04-11T10:20:59.744Z,100387.55
2018-04-11T10:23:27.256Z,100386.94
2018-04-11T10:25:54.724Z,100385.55
2018-04-11T10:28:22.299Z,100390.08
2018-04-11T10:30:49.756Z,100392.87
2018-04-11T10:33:17.223Z,100397.89
2018-04-11T10:35:44.721Z,100398.21
2018-04-11T10:38:12.222Z,100392.06
2018-04-11T10:40:39.741Z,100396.06
2018-04-11T10:43:07.296Z,100399.18
2018-04-11T10:45:34.848Z,100398.33
2018-04-11T10:48:02.310Z,100388.31
2018-04-11T10:50:29.777Z,100390.45
2018-04-11T10:52:57.328Z,100392.19
2018-04-11T10:55:24.800Z,100389.48
2018-04-11T10:57:52.296Z,100392.27
2018-04-11T11:00:19.774Z,100387.31
2018-04-11T11:02:47.264Z,100389.09
2018-04-11T11:05:14.766Z,100393.61
2018-04-11T11:07:42.288Z,100383.90
2018-04-11T11:10:09.747Z,100379.20
2018-04-11T11:12:37.249Z,100383.25
2018-04-11T11:15:04.793Z,100384.02
2018-04-11T11:17:32.272Z,100385.14
2018-04-11T11:20:01.598Z,100387.92
2018-04-11T11:22:29.134Z,100384.91
2018-04-11T11:24:56.624Z,100387.88
2018-04-11T11:27:24.118Z,100385.13
2018-04-11T11:29:51.592Z,100385.09
2018-04-11T11:32:19.209Z,100383.53
2018-04-11T11:34:46.721Z,100382.69
2018-04-11T11:37:14.369Z,100382.28
2018-04-11T11:39:41.881Z,100382.53
2018-04-11T11:42:09.456Z,100373.17
2018-04-11T11:44:36.917Z,100372.10
2018-04-11T11:47:04.409Z,100370.14
2018-04-11T11:49:31.950Z,100377.54
2018-04-11T11:51:59.442Z,100375.23
2018-04-11T11:54:26.970Z,100378.45
2018-04-11T11:56:54.472Z,100369.37
2018-04-11T11:59:21.945Z,100365.58
2018-04-11T12:01:49.438Z,100377.86
2018-04-11T12:04:16.913Z,100372.24
2018-04-11T12:06:44.402Z,100374.15
2018-04-11T12:09:11.951Z,100372.45
2018-04-11T12:11:39.492Z,100379.96
2018-04-11T12:14:07.020Z,100375.08
2018-04-11T12:16:34.493Z,100369.00
2018-04-11T12:19:01.961Z,100373.22
2018-04-11T12:21:29.506Z,100363.47
2018-04-11T12:23:57.102Z,100359.80
2018-04-11T12:26:24.613Z,100359.02
2018-04-11T12:28:52.115Z,100357.94
2018-04-11T12:31:19.585Z,100357.00
2018-04-11T12:33:47.103Z,100351.50
2018-04-11T12:36:14.599Z,100347.46
2018-04-11T12:38:42.066Z,100343.05
2018-04-11T12:41:09.611Z,100344.95
2018-04-11T12:43:37.135Z,100350.81
2018-04-11T12:46:04.628Z,100346.48
2018-04-11T12:48:32.141Z,100349.81
2018-04-11T12:50:59.600Z,100349.67
2018-04-11T12:53:27.077Z,100347.17
2018-04-11T12:55:54.589Z,100361.50
2018-04-11T12:58:22.088Z,100341.16
2018-04-11T13:00:49.552Z,100344.34
2018-04-11T13:03:17.044Z,100337.80
2018-04-11T13:05:44.539Z,100339.30
2018-04-11T13:08:12.035Z,100332.83
2018-04-11T13:10:39.580Z,100332.30
2018-04-11T13:13:07.137Z,100333.59
2018-04-11T13:15:34.661Z,100328.47
2018-04-11T13:18:02.122Z,100329.06
2018-04-11T13:20:29.751Z,100330.95
2018-04-11T13:22:57.260Z,100331.48
2018-04-11T13:25:24.762Z,100325.36
2018-04-11T13:27:52.289Z,100317.53
2018-04-11T13:30:19.781Z,100325.91
2018-04-11T13:32:47.245Z,100319.20
2018-04-11T13:35:14.750Z,100323.16
2018-04-11T13:37:42.234Z,100324.53
2018-04-11T13:40:09.809Z,100322.67
2018-04-11T13:42:37.369Z,100324.94
2018-04-11T13:45:04.888Z,100315.89
2018-04-11T13:47:32.369Z,100312.29
2018-04-11T13:49:59.873Z,100313.58
2018-04-11T13:52:27.336Z,100314.17
2018-04-11T13:54:54.848Z,100321.70
2018-04-11T13:57:22.341Z,100312.73
2018-04-11T13:59:49.856Z,100317.47
2018-04-11T14:02:17.333Z,100323.64
2018-04-11T14:04:44.796Z,100328.14
2018-04-11T14:07:12.351Z,100325.72
2018-04-11T14:09:39.819Z,100314.27
2018-04-11T14:12:07.296Z,100321.20
2018-04-11T14:14:34.770Z,100331.84
2018-04-11T14:17:02.245Z,100319.50
2018-04-11T14:19:29.741Z,100309.55
2018-04-11T14:21:57.204Z,100316.06
2018-04-11T14:24:24.691Z,100311.97
2018-04-11T14:26:52.157Z,100309.75
2018-04-11T14:29:19.633Z,100304.77
2018-04-11T14:31:47.124Z,100296.25
2018-04-11T14:34:14.606Z,100302.75
2018-04-11T14:36:42.081Z,100304.52
2018-04-11T14:39:09.552Z,100292.67
2018-04-11T14:41:37.065Z,100297.84
2018-04-11T14:44:04.530Z,100289.52
2018-04-11T14:46:32.028Z,100297.64
2018-04-11T14:48:59.574Z,100297.87
2018-04-11T14:51:27.085Z,100293.29
2018-04-11T14:53:54.614Z,100293.47
2018-04-11T14:56:22.165Z,100293.02
2018-04-11T14:58:49.664Z,100292.27
2018-04-11T15:01:17.170Z,100298.53
2018-04-11T15:03:44.786Z,100287.55
2018-04-11T15:06:12.308Z,100285.31
2018-04-11T15:08:39.794Z,100291.09
2018-04-11T15:11:07.258Z,100296.08
2018-04-11T15:13:34.753Z,100295.92
2018-04-11T15:16:02.229Z,100296.73
2018-04-11T15:18:29.791Z,100301.91
2018-04-11T15:20:57.301Z,100299.39
2018-04-11T15:23:24.780Z,100295.94
2018-04-11T15:25:52.364Z,100307.56
2018-04-11T15:28:19.857Z,100302.06
2018-04-11T15:30:47.317Z,100312.08
2018-04-11T15:33:14.849Z,100302.46
2018-04-11T15:35:42.408Z,100309.93
2018-04-11T15:38:09.889Z,100303.81
2018-04-11T15:40:37.359Z,100313.27
2018-04-11T15:43:04.845Z,100307.20
2018-04-11T15:45:32.340Z,100313.41
2018-04-11T15:47:59.820Z,100319.75
2018-04-11T15:50:28.532Z,100321.63
2018-04-11T15:52:56.079Z,100323.94
2018-04-11T15:55:23.648Z,100326.20
2018-04-11T15:57:51.134Z,100324.08
2018-04-11T16:00:18.607Z,100328.39
2018-04-11T16:02:46.069Z,100327.12
2018-04-11T16:05:13.580Z,100327.78
2018-04-11T16:07:41.136Z,100331.99
2018-04-11T16:10:08.680Z,100337.36
2018-04-11T16:12:36.306Z,100332.95
2018-04-11T16:15:03.785Z,100334.92
2018-04-11T16:17:31.271Z,100332.45
2018-04-11T16:19:58.780Z,100331.33
2018-04-11T16:22:26.281Z,100327.28
2018-04-11T16:24:53.795Z,100327.23
2018-04-11T16:27:21.273Z,100319.01
2018-04-11T16:29:48.839Z,100320.15
2018-04-11T16:32:16.369Z,100329.18
2018-04-11T16:34:43.840Z,100324.34
2018-04-11T16:37:11.304Z,100320.98
2018-04-11T16:39:38.881Z,100327.17
2018-04-11T16:42:06.370Z,100331.69
2018-04-11T16:44:33.842Z,100341.95
2018-04-11T16:47:01.341Z,100337.34
2018-04-11T16:49:28.929Z,100336.45
2018-04-11T16:51:56.409Z,100325.23
2018-04-11T16:54:23.911Z,100328.98
2018-04-11T16:56:51.504Z,100334.53
2018-04-11T16:59:19.007Z,100340.58
2018-04-11T17:01:46.525Z,100338.31
2018-04-11T17:04:14.049Z,100341.52
2018-04-11T17:06:41.600Z,100344.80
2018-04-11T17:09:09.162Z,100343.89
2018-04-11T17:11:36.626Z,100345.54
2018-04-11T17:14:04.089Z,100349.25
2018-04-11T17:16:31.581Z,100350.77
2018-04-11T17:18:59.052Z,100358.97
2018-04-11T17:21:38.336Z,100359.09
2018-04-11T17:24:17.640Z,100367.84
2018-04-11T17:26:56.980Z,100370.30
2018-04-11T17:29:36.457Z,100376.00
2018-04-11T17:32:03.954Z,100370.79
2018-04-11T17:34:31.449Z,100375.84
2018-04-11T17:36:58.950Z,100372.55
2018-04-11T17:39:26.465Z,100372.69
2018-04-11T17:41:54.034Z,100374.31
2018-04-11T17:44:21.496Z,100380.59
2018-04-11T17:46:48.993Z,100383.62
2018-04-11T17:49:16.465Z,100381.14
2018-04-11T17:51:43.930Z,100378.40
2018-04-11T17:54:11.441Z,100380.96
2018-04-11T17:56:38.910Z,100378.77
2018-04-11T17:59:06.383Z,100375.87
2018-04-11T18:01:33.990Z,100378.05
2018-04-11T18:04:01.459Z,100386.10
2018-04-11T18:06:28.919Z,100384.32
2018-04-11T18:08:56.495Z,100375.30
2018-04-11T18:11:23.972Z,100382.52
2018-04-11T18:13:51.439Z,100388.77
2018-04-11T18:16:18.965Z,100396.25
2018-04-11T18:18:46.446Z,100404.45
2018-04-11T18:21:13.907Z,100401.20
2018-04-11T18:23:41.430Z,100396.63
2018-04-11T18:26:08.899Z,100404.26
2018-04-11T18:28:36.441Z,100403.45
2018-04-11T18:31:03.946Z,100405.77
2018-04-11T18:33:31.430Z,100402.36
2018-04-11T18:35:58.900Z,100396.47
2018-04-11T18:38:26.421Z,100401.91
2018-04-11T18:40:53.928Z,100401.48
2018-04-11T18:43:21.418Z,100408.44
2018-04-11T18:45:48.949Z,100415.37
2018-04-11T18:48:16.419Z,100416.89
2018-04-11T18:50:43.906Z,100422.09
2018-04-11T18:53:11.419Z,100413.63
2018-04-11T18:55:38.985Z,100413.36
2018-04-11T18:58:06.470Z,100421.12
2018-04-11T19:00:34.065Z,100414.97
2018-04-11T19:03:01.469Z,100415.27
2018-04-11T19:05:29.013Z,100414.88
2018-04-11T19:07:56.491Z,100419.22
2018-04-11T19:10:24.002Z,100423.84
2018-04-11T19:12:51.506Z,100418.53
2018-04-11T19:15:18.986Z,100423.16
2018-04-11T19:17:46.466Z,100414.70
2018-04-11T19:20:13.941Z,100409.09
2018-04-11T19:22:41.436Z,100415.88
2018-04-11T19:25:09.058Z,100412.58
2018-04-11T19:27:36.520Z,100417.77
2018-04-11T19:30:03.992Z,100412.45
2018-04-11T19:32:31.488Z,100415.30
2018-04-11T19:34:58.995Z,100414.09
2018-04-11T19:37:26.461Z,100411.91
2018-04-11T19:39:53.930Z,100416.25
2018-04-11T19:42:21.434Z,100418.02
2018-04-11T19:44:48.890Z,100409.16
2018-04-11T19:47:16.362Z,100409.28
2018-04-11T19:49:43.840Z,100411.88
2018-04-11T19:54:45.303Z,100408.31
2018-04-11T19:57:12.885Z,100411.59
2018-04-11T19:59:40.350Z,100410.37
2018-04-11T20:02:07.848Z,100402.73
2018-04-11T20:04:35.329Z,100402.33
2018-04-11T20:07:02.809Z,100401.23
2018-04-11T20:09:30.368Z,100401.48
2018-04-11T20:11:57.928Z,100404.50
2018-04-11T20:14:25.403Z,100401.06
2018-04-11T20:16:52.894Z,100398.73
2018-04-11T20:19:20.384Z,100401.45
2018-04-11T20:21:47.861Z,100399.27
2018-04-11T20:24:15.348Z,100396.66
2018-04-11T20:26:42.870Z,100395.55
2018-04-11T20:29:10.321Z,100393.92
2018-04-11T20:31:37.782Z,100392.42
2018-04-11T20:34:05.274Z,100389.70
2018-04-11T20:36:32.748Z,100389.14
2018-04-11T20:39:00.266Z,100388.58
2018-04-11T20:41:27.760Z,100383.52
2018-04-11T20:43:55.229Z,100380.38
2018-04-11T20:46:22.688Z,100373.84
2018-04-11T20:48:50.184Z,100376.98
2018-04-11T20:51:17.646Z,100375.74
2018-04-11T20:53:45.125Z,100373.31
2018-04-11T20:56:12.671Z,100371.67
2018-04-11T20:58:40.136Z,100370.29
2018-04-11T21:01:07.609Z,100370.16
2018-04-11T21:03:35.104Z,100364.56
2018-04-11T21:06:02.585Z,100369.22
2018-04-11T21:08:30.169Z,100369.78
2018-04-11T21:10:57.764Z,100362.27
2018-04-11T21:13:25.237Z,100366.64
2018-04-11T21:15:52.702Z,100367.95
2018-04-11T21:18:20.266Z,100362.48
2018-04-11T21:20:47.701Z,100364.26
2018-04-11T21:23:15.175Z,100361.95
2018-04-11T21:25:42.718Z,100357.31
2018-04-11T21:28:10.174Z,100352.25
2018-04-11T21:30:37.657Z,100349.23
2018-04-11T21:33:05.149Z,100346.24
2018-04-11T21:35:32.625Z,100347.85
2018-04-11T21:38:00.101Z,100354.39
2018-04-11T21:40:27.603Z,100358.58
2018-04-11T21:42:55.092Z,100347.66
2018-04-11T21:45:22.560Z,100345.06
2018-04-11T21:47:50.185Z,100343.28
2018-04-11T21:50:17.757Z,100345.44
2018-04-11T21:52:45.334Z,100342.30
2018-04-11T21:55:12.884Z,100341.59
2018-04-11T21:57:40.384Z,100337.62
2018-04-11T22:00:07.860Z,100333.52
2018-04-11T22:02:35.355Z,100332.55
2018-04-11T22:05:02.822Z,100343.73
2018-04-11T22:07:30.314Z,100336.80
2018-04-11T22:09:57.854Z,100337.19
2018-04-11T22:12:25.324Z,100332.75
2018-04-11T22:14:52.834Z,100330.55
2018-04-11T22:17:20.338Z,100327.80
2018-04-11T22:19:47.860Z,100331.97
2018-04-11T22:22:15.353Z,100328.00
2018-04-11T22:24:42.838Z,100324.44
2018-04-11T22:27:10.313Z,100326.70
2018-04-11T22:29:37.886Z,100326.44
2018-04-11T22:32:05.442Z,100333.38
2018-04-11T22:34:32.908Z,100327.36
2018-04-11T22:37:00.408Z,100327.74
2018-04-11T22:39:27.886Z,100331.40
2018-04-11T22:41:55.361Z,100327.02
2018-04-11T22:44:22.856Z,100322.75
2018-04-11T22:46:50.329Z,100316.88
2018-04-11T22:49:17.844Z,100319.17
2018-04-11T22:51:45.332Z,100308.39
2018-04-11T22:54:12.797Z,100301.97
2018-04-11T22:56:40.261Z,100306.52
2018-04-11T22:59:07.856Z,100303.67
2018-04-11T23:01:35.348Z,100301.33
2018-04-11T23:04:02.949Z,100295.34
2018-04-11T23:06:30.477Z,100306.05
2018-04-11T23:08:57.944Z,100302.34
2018-04-11T23:11:25.413Z,100306.56
2018-04-11T23:13:52.992Z,100303.96
2018-04-11T23:16:20.484Z,100305.95
2018-04-11T23:18:47.967Z,100309.60
2018-04-11T23:21:15.428Z,100297.03
2018-04-11T23:23:42.903Z,100304.35
2018-04-11T23:26:10.388Z,100295.87
2018-04-11T23:28:37.884Z,100290.84
2018-04-11T23:31:05.384Z,100295.02
2018-04-11T23:33:32.844Z,100302.92
2018-04-11T23:36:00.352Z,100296.22
2018-04-11T23:38:27.852Z,100296.09
2018-04-11T23:40:55.327Z,100286.55
2018-04-11T23:43:22.794Z,100288.28
2018-04-11T23:45:50.386Z,100284.83
2018-04-11T23:48:17.853Z,100287.94
2018-04-11T23:50:45.321Z,100278.77
2018-04-11T23:53:12.869Z,100281.48
2018-04-11T23:55:40.353Z,100277.70
2018-04-11T23:58:07.922Z,100280.78
